Time;durP1;ratioP1;P1;durP2;ratioP2;P2;SDS_P1;SDS_P2;PMS_P1;PMS_P2;Temp;Humidity;BMP_temperature;BMP_pressure;BME280_temperature;BME280_humidity;BME280_pressure;Samples;Min_cycle;Max_cycle;Signal;HPM_P1;HPM_P2
2022/10/28 00:09:51;;;;;;;8.93;3.20;;;18.80;99.90;;;;;;7715196;76;26265;-54
2022/10/28 00:19:54;;;;;;;5.30;3.37;;;18.80;99.90;;;;;;7750095;76;26275;-56
2022/10/28 00:29:56;;;;;;;5.73;2.93;;;18.80;99.90;;;;;;7738387;76;26314;-55
2022/10/28 00:39:59;;;;;;;6.60;3.30;;;18.70;99.90;;;;;;7753863;76;26733;-56
2022/10/28 00:50:16;;;;;;;6.93;3.60;;;18.70;99.90;;;;;;7736007;76;26256;-56
2022/10/28 01:00:19;;;;;;;4.90;3.13;;;18.70;99.90;;;;;;7768618;76;26374;-56
2022/10/28 01:10:24;;;;;;;9.20;3.30;;;18.70;99.90;;;;;;7743026;76;26263;-55
2022/10/28 01:20:46;;;;;;;6.50;3.17;;;18.70;99.90;;;;;;7750184;76;26780;-54
2022/10/28 01:31:17;;;;;;;5.63;3.17;;;18.70;99.90;;;;;;7745585;76;26256;-56
2022/10/28 01:41:31;;;;;;;8.70;3.20;;;18.70;99.90;;;;;;7743000;76;26300;-56
2022/10/28 01:51:40;;;;;;;6.83;3.07;;;18.70;99.90;;;;;;7768086;74;26276;-56
2022/10/28 02:01:42;;;;;;;5.83;3.30;;;18.70;99.90;;;;;;7731518;76;26844;-56
2022/10/28 02:11:53;;;;;;;5.90;3.40;;;18.80;99.90;;;;;;7778937;76;26248;-54
2022/10/28 02:22:02;;;;;;;7.10;3.30;;;18.80;99.90;;;;;;7746801;75;26838;-55
2022/10/28 02:32:07;;;;;;;5.40;2.97;;;18.80;99.90;;;;;;7753467;75;26299;-54
2022/10/28 02:42:19;;;;;;;8.47;2.77;;;18.80;99.90;;;;;;7748006;75;26772;-56
2022/10/28 02:52:24;;;;;;;6.43;3.10;;;18.80;99.90;;;;;;7735752;75;26238;-57
2022/10/28 03:02:27;;;;;;;7.53;2.97;;;18.80;99.90;;;;;;7719046;75;26324;-54
2022/10/28 03:12:31;;;;;;;6.47;2.83;;;18.80;99.90;;;;;;7737955;75;26219;-54
2022/10/28 03:22:33;;;;;;;10.00;3.80;;;18.80;99.90;;;;;;7736888;76;26252;-56
2022/10/28 03:32:36;;;;;;;6.33;2.57;;;18.90;99.90;;;;;;7725446;76;26350;-54
2022/10/28 03:42:40;;;;;;;5.77;2.90;;;18.90;99.90;;;;;;7751792;76;26264;-56
2022/10/28 03:52:43;;;;;;;11.97;3.67;;;18.90;99.90;;;;;;7754582;76;26255;-53
2022/10/28 04:02:53;;;;;;;7.60;3.27;;;18.90;99.90;;;;;;7713796;76;26259;-54
2022/10/28 04:13:01;;;;;;;5.90;2.73;;;18.90;99.90;;;;;;7742025;76;26309;-53
2022/10/28 04:23:03;;;;;;;10.83;2.57;;;18.90;99.90;;;;;;7668635;77;26256;-55
2022/10/28 04:33:06;;;;;;;6.07;3.47;;;18.90;99.90;;;;;;7628915;77;26326;-54
2022/10/28 04:43:10;;;;;;;12.23;3.47;;;18.90;99.90;;;;;;7668553;77;26845;-54
2022/10/28 04:53:13;;;;;;;10.23;3.30;;;18.90;99.90;;;;;;7677533;77;26286;-55
2022/10/28 05:03:15;;;;;;;6.30;3.03;;;18.90;99.90;;;;;;7657827;77;26341;-55
2022/10/28 05:13:18;;;;;;;8.27;3.50;;;18.90;99.90;;;;;;7679647;77;26294;-55
2022/10/28 05:23:22;;;;;;;8.50;2.80;;;19.00;99.90;;;;;;7738570;76;26823;-56
2022/10/28 05:33:25;;;;;;;8.53;2.73;;;19.00;99.90;;;;;;7728549;76;26243;-55
2022/10/28 05:43:28;;;;;;;14.23;3.83;;;18.90;99.90;;;;;;7734511;76;26256;-55
2022/10/28 05:53:30;;;;;;;8.70;3.70;;;19.00;99.90;;;;;;7738508;76;26745;-54
2022/10/28 06:03:33;;;;;;;10.83;3.27;;;19.00;99.90;;;;;;7724274;76;26299;-55
2022/10/28 06:13:35;;;;;;;14.90;3.73;;;19.00;99.90;;;;;;7746218;75;26794;-55
2022/10/28 06:23:38;;;;;;;14.83;3.00;;;18.90;99.90;;;;;;7724289;75;26351;-55
2022/10/28 06:33:40;;;;;;;8.13;3.20;;;18.90;99.90;;;;;;7740685;75;26295;-55
2022/10/28 06:43:43;;;;;;;4.50;2.97;;;18.90;99.90;;;;;;7732234;75;26832;-54
2022/10/28 06:53:50;;;;;;;5.80;2.57;;;18.90;99.90;;;;;;7724297;76;26299;-55
2022/10/28 07:03:53;;;;;;;10.87;3.17;;;18.90;99.90;;;;;;7736371;76;26778;-56
2022/10/28 07:13:55;;;;;;;5.60;2.90;;;18.90;99.90;;;;;;7748782;76;26300;-53
2022/10/28 07:23:58;;;;;;;6.73;2.73;;;18.90;99.90;;;;;;7714178;76;26330;-54
2022/10/28 07:34:00;;;;;;;14.13;4.40;;;18.90;99.90;;;;;;7697905;76;26908;-55
2022/10/28 07:44:03;;;;;;;19.43;8.70;;;18.90;99.90;;;;;;7677678;76;26564;-53
2022/10/28 07:54:06;;;;;;;27.27;11.27;;;19.00;99.90;;;;;;7694712;76;26830;-57
2022/10/28 08:04:08;;;;;;;30.10;13.63;;;19.00;99.90;;;;;;7667606;76;26296;-55
2022/10/28 08:14:11;;;;;;;30.43;12.73;;;19.00;99.90;;;;;;7696535;76;26762;-56
2022/10/28 08:24:14;;;;;;;30.20;11.93;;;19.00;99.90;;;;;;7574782;76;26326;-55
2022/10/28 08:34:16;;;;;;;20.90;9.53;;;19.00;99.90;;;;;;7574001;77;27372;-54
2022/10/28 08:44:34;;;;;;;20.63;9.63;;;19.10;99.90;;;;;;7571419;77;26616;-56
2022/10/28 08:54:51;;;;;;;20.00;7.90;;;19.10;99.90;;;;;;7552883;77;26777;-55
2022/10/28 09:05:00;;;;;;;38.73;8.87;;;19.10;99.90;;;;;;7581632;77;26346;-60
2022/10/28 09:15:20;;;;;;;28.53;8.33;;;19.30;99.90;;;;;;7558605;77;26680;-60
2022/10/28 09:25:38;;;;;;;29.87;8.73;;;19.30;99.90;;;;;;7610205;76;26295;-60
2022/10/28 09:35:44;;;;;;;16.17;3.90;;;19.60;99.90;;;;;;7548006;76;26611;-60
2022/10/28 09:45:50;;;;;;;25.00;7.57;;;19.70;99.90;;;;;;7593885;76;26763;-58
2022/10/28 09:55:52;;;;;;;16.93;6.47;;;19.90;99.90;;;;;;7608702;77;26286;-58
2022/10/28 10:05:58;;;;;;;23.03;7.30;;;20.00;99.90;;;;;;7615180;77;26334;-60
2022/10/28 10:16:03;;;;;;;23.47;6.07;;;20.10;99.90;;;;;;7620150;76;27603;-58
2022/10/28 10:26:08;;;;;;;20.47;6.70;;;20.20;99.90;;;;;;7630606;76;26354;-61
2022/10/28 10:36:14;;;;;;;24.90;6.90;;;20.20;99.90;;;;;;7597882;76;26329;-60
2022/10/28 10:46:17;;;;;;;29.23;5.87;;;20.30;99.90;;;;;;7624990;76;26275;-60
2022/10/28 10:56:26;;;;;;;15.07;5.23;;;20.30;99.90;;;;;;7618090;76;26357;-60
2022/10/28 11:06:41;;;;;;;18.37;5.13;;;20.40;99.90;;;;;;7609029;76;26237;-64
2022/10/28 11:16:52;;;;;;;15.67;4.53;;;20.40;99.90;;;;;;7628094;76;26598;-62
2022/10/28 11:27:22;;;;;;;15.90;5.00;;;20.40;99.90;;;;;;7674869;76;26370;-60
2022/10/28 11:37:45;;;;;;;18.33;4.20;;;20.50;99.90;;;;;;7688022;76;26820;-61
2022/10/28 11:48:24;;;;;;;11.33;4.53;;;20.50;99.90;;;;;;7486474;77;27511;-61
2022/10/28 11:58:45;;;;;;;14.10;4.20;;;20.60;99.90;;;;;;7516347;77;26780;-60
2022/10/28 12:08:56;;;;;;;15.80;4.90;;;20.60;99.90;;;;;;7683805;76;26331;-61
2022/10/28 12:19:17;;;;;;;20.23;6.30;;;20.70;99.90;;;;;;7699736;76;26319;-62
2022/10/28 12:29:22;;;;;;;14.53;4.40;;;20.70;99.90;;;;;;7704470;75;26291;-60
2022/10/28 12:39:34;;;;;;;13.97;4.80;;;20.70;99.90;;;;;;7720558;76;26307;-57
2022/10/28 12:49:55;;;;;;;14.57;4.20;;;20.70;99.90;;;;;;7730798;75;26307;-60
2022/10/28 13:00:03;;;;;;;10.43;3.97;;;20.80;99.90;;;;;;7719494;75;26287;-60
2022/10/28 13:10:33;;;;;;;12.77;4.03;;;20.80;99.90;;;;;;7737932;76;26339;-58
2022/10/28 13:20:58;;;;;;;11.70;4.70;;;20.80;99.90;;;;;;7757482;76;26295;-57
2022/10/28 13:31:06;;;;;;;20.73;4.53;;;20.90;99.90;;;;;;7751281;76;26922;-57
2022/10/28 13:41:11;;;;;;;10.10;3.50;;;20.90;99.90;;;;;;7763567;76;26306;-58
2022/10/28 13:51:16;;;;;;;14.30;3.90;;;20.90;99.90;;;;;;7762828;76;26262;-57
2022/10/28 14:01:46;;;;;;;16.33;5.23;;;20.90;99.90;;;;;;7764441;76;26298;-59
2022/10/28 14:12:07;;;;;;;12.20;3.80;;;20.90;99.90;;;;;;7773596;75;26244;-61
2022/10/28 14:22:09;;;;;;;14.53;4.03;;;20.90;99.90;;;;;;7758633;76;26244;-58
2022/10/28 14:32:34;;;;;;;14.53;3.70;;;20.90;99.90;;;;;;7740641;76;27028;-56
2022/10/28 14:43:01;;;;;;;12.67;3.67;;;20.90;99.90;;;;;;7758395;76;26572;-60
2022/10/28 14:53:06;;;;;;;14.43;3.90;;;20.90;99.90;;;;;;7741747;76;26241;-60
2022/10/28 15:03:11;;;;;;;17.43;3.33;;;20.80;99.90;;;;;;7732512;76;26274;-60
2022/10/28 15:13:17;;;;;;;15.07;4.13;;;20.80;99.90;;;;;;7750180;76;26248;-61
2022/10/28 15:23:23;;;;;;;20.53;6.77;;;20.80;99.90;;;;;;7734324;76;26288;-61
2022/10/28 15:33:30;;;;;;;17.17;4.60;;;20.80;99.90;;;;;;7738568;76;26918;-61
2022/10/28 15:43:33;;;;;;;24.87;5.33;;;20.80;99.90;;;;;;7723735;75;26247;-61
2022/10/28 15:53:41;;;;;;;24.13;7.87;;;20.80;99.90;;;;;;7732409;75;26919;-63
2022/10/28 16:03:45;;;;;;;30.63;7.23;;;20.70;99.90;;;;;;7711913;76;26311;-63
2022/10/28 16:13:49;;;;;;;17.97;6.93;;;20.70;99.90;;;;;;7740526;76;26829;-62
2022/10/28 16:23:55;;;;;;;24.50;6.93;;;20.70;99.90;;;;;;7764292;76;26321;-62
2022/10/28 16:33:59;;;;;;;31.23;7.30;;;20.60;99.90;;;;;;7788499;75;26773;-63
2022/10/28 16:44:01;;;;;;;20.97;6.37;;;20.60;99.90;;;;;;7784968;76;26330;-63
2022/10/28 16:54:04;;;;;;;20.57;6.83;;;20.60;99.90;;;;;;7760022;76;26260;-64
2022/10/28 17:04:08;;;;;;;20.17;5.50;;;20.60;99.90;;;;;;7774239;76;27421;-63
2022/10/28 17:14:10;;;;;;;23.07;8.03;;;20.60;99.90;;;;;;7770330;76;26774;-60
2022/10/28 17:24:13;;;;;;;25.20;5.50;;;20.60;99.90;;;;;;7751455;76;26288;-61
2022/10/28 17:34:16;;;;;;;26.60;9.63;;;20.60;99.90;;;;;;7751674;76;26373;-62
2022/10/28 17:44:18;;;;;;;32.53;13.17;;;20.60;99.90;;;;;;7724515;76;26302;-60
2022/10/28 17:54:21;;;;;;;32.33;9.20;;;20.50;99.90;;;;;;7730334;76;26306;-61
2022/10/28 18:04:26;;;;;;;18.80;6.37;;;20.50;99.90;;;;;;7760410;76;27342;-60
2022/10/28 18:14:29;;;;;;;26.13;5.73;;;20.50;99.90;;;;;;7720237;75;26300;-61
2022/10/28 18:24:32;;;;;;;24.60;8.23;;;20.50;99.90;;;;;;7752799;76;26271;-62
2022/10/28 18:34:34;;;;;;;23.90;6.57;;;20.50;99.90;;;;;;7762946;76;27443;-59
2022/10/28 18:44:37;;;;;;;27.67;6.47;;;20.50;99.90;;;;;;7771090;75;26340;-59
2022/10/28 18:54:39;;;;;;;26.97;6.47;;;20.50;99.90;;;;;;7749386;76;26296;-59
2022/10/28 19:04:42;;;;;;;27.83;6.90;;;20.50;99.90;;;;;;7766661;76;26393;-59
2022/10/28 19:14:44;;;;;;;25.60;7.97;;;20.50;99.90;;;;;;7738180;76;27356;-60
2022/10/28 19:24:47;;;;;;;33.30;9.70;;;20.50;99.90;;;;;;7740286;76;26691;-58
2022/10/28 19:34:49;;;;;;;35.40;11.37;;;20.60;99.90;;;;;;7712900;76;26253;-59
2022/10/28 19:44:52;;;;;;;37.13;13.93;;;20.60;99.90;;;;;;7715519;76;26315;-59
2022/10/28 19:54:54;;;;;;;29.83;12.93;;;20.60;99.90;;;;;;7701288;76;26789;-60
2022/10/28 20:04:57;;;;;;;23.77;11.37;;;20.50;99.90;;;;;;7716738;76;26361;-59
2022/10/28 20:14:59;;;;;;;35.53;11.47;;;20.50;99.90;;;;;;7745230;76;26374;-60
2022/10/28 20:25:07;;;;;;;30.97;10.13;;;20.60;99.90;;;;;;7671288;76;26789;-59
2022/10/28 20:35:06;;;;;;;24.63;10.67;;;20.60;99.90;;;;;;7603911;77;27157;-58
2022/10/28 20:45:09;;;;;;;20.70;10.93;;;20.60;99.90;;;;;;7623809;77;26687;-59
2022/10/28 20:55:12;;;;;;;21.67;9.20;;;20.50;99.90;;;;;;7617286;77;26285;-59
2022/10/28 21:05:15;;;;;;;22.03;10.10;;;20.60;99.90;;;;;;7626282;77;26718;-60
2022/10/28 21:15:17;;;;;;;21.27;8.73;;;20.60;99.90;;;;;;7614542;77;26281;-60
2022/10/28 21:25:20;;;;;;;20.67;9.43;;;20.60;99.90;;;;;;7652700;76;26299;-60
2022/10/28 21:35:23;;;;;;;17.57;8.70;;;20.60;99.90;;;;;;7706756;76;27130;-60
2022/10/28 21:45:25;;;;;;;22.87;8.50;;;20.60;99.90;;;;;;7712750;76;26790;-60
2022/10/28 21:55:28;;;;;;;19.20;7.13;;;20.60;99.90;;;;;;7710777;76;26374;-62
2022/10/28 22:05:30;;;;;;;15.90;7.70;;;20.60;99.90;;;;;;7720725;76;26318;-62
2022/10/28 22:15:33;;;;;;;14.67;6.57;;;20.60;99.90;;;;;;7728559;76;26321;-60
2022/10/28 22:25:35;;;;;;;19.27;7.63;;;20.60;99.90;;;;;;7711410;76;26286;-59
2022/10/28 22:35:38;;;;;;;19.23;7.20;;;20.60;99.90;;;;;;7706126;76;26275;-58
2022/10/28 22:45:40;;;;;;;17.93;6.00;;;20.60;99.90;;;;;;7717512;76;26780;-61
2022/10/28 22:55:43;;;;;;;14.80;6.93;;;20.60;99.90;;;;;;7717320;76;26267;-61
2022/10/28 23:05:45;;;;;;;21.57;5.77;;;20.60;99.90;;;;;;7722973;76;26256;-60
2022/10/28 23:15:48;;;;;;;11.00;5.50;;;20.60;99.90;;;;;;7723844;76;26252;-59
2022/10/28 23:25:54;;;;;;;16.83;5.70;;;20.60;99.90;;;;;;7737745;76;26286;-60
2022/10/28 23:35:57;;;;;;;12.63;6.10;;;20.50;99.90;;;;;;7749148;76;26351;-60
2022/10/28 23:46:00;;;;;;;10.90;5.17;;;20.50;99.90;;;;;;7758278;76;26819;-61
2022/10/28 23:56:03;;;;;;;15.60;5.97;;;20.50;99.90;;;;;;7743260;76;26858;-60
